createdAt,value
2022-09-24T00:01:17.658Z,97982.03
2022-09-24T00:03:55.230Z,97975.22
2022-09-24T00:06:24.218Z,97966.06
2022-09-24T00:08:55.179Z,97961.00
2022-09-24T00:11:25.142Z,97956.75
2022-09-24T00:13:54.620Z,97954.38
2022-09-24T00:16:25.946Z,97955.94
2022-09-24T00:18:57.246Z,97956.97
2022-09-24T00:21:28.081Z,97955.31
2022-09-24T00:23:59.419Z,97951.97
2022-09-24T00:26:45.929Z,97958.13
2022-09-24T00:29:18.059Z,97945.97
2022-09-24T00:31:46.785Z,97941.00
2022-09-24T00:34:16.471Z,97936.88
2022-09-24T00:36:46.687Z,97939.75
2022-09-24T00:39:15.237Z,97930.41
2022-09-24T00:41:48.741Z,97941.63
2022-09-24T00:44:49.216Z,97948.66
2022-09-24T00:47:27.986Z,97945.56
2022-09-24T00:50:08.018Z,97955.50
2022-09-24T00:52:41.907Z,97939.03
2022-09-24T00:55:11.264Z,97934.75
2022-09-24T00:57:41.393Z,97922.75
2022-09-24T01:00:11.631Z,97917.56
2022-09-24T01:02:44.353Z,97909.28
2022-09-24T01:05:14.271Z,97901.72
2022-09-24T01:07:42.692Z,97900.97
2022-09-24T01:10:11.805Z,97905.34
2022-09-24T01:12:48.024Z,97911.56
2022-09-24T01:15:25.623Z,97909.06
2022-09-24T01:18:01.506Z,97898.00
2022-09-24T01:20:54.699Z,97906.81
2022-09-24T01:23:57.418Z,97901.81
2022-09-24T01:26:49.575Z,97902.75
2022-09-24T01:29:37.434Z,97889.81
2022-09-24T01:32:09.919Z,97891.66
2022-09-24T01:34:45.133Z,97890.00
2022-09-24T01:37:17.390Z,97878.69
2022-09-24T01:39:48.170Z,97878.19
2022-09-24T01:42:18.138Z,97876.56
2022-09-24T01:44:49.240Z,97880.91
2022-09-24T01:47:22.380Z,97881.00
2022-09-24T01:49:53.518Z,97875.09
2022-09-24T01:52:29.402Z,97867.53
2022-09-24T01:55:00.924Z,97875.63
2022-09-24T01:57:35.464Z,97878.28
2022-09-24T02:00:10.276Z,97870.75
2022-09-24T02:02:46.868Z,97864.13
2022-09-24T02:05:24.915Z,97857.47
2022-09-24T02:08:01.988Z,97852.53
2022-09-24T02:10:37.886Z,97853.44
2022-09-24T02:13:13.018Z,97855.31
2022-09-24T02:15:47.741Z,97857.16
2022-09-24T02:18:18.114Z,97859.13
2022-09-24T02:20:48.641Z,97854.06
2022-09-24T02:23:19.102Z,97858.72
2022-09-24T02:25:55.489Z,97858.81
2022-09-24T02:28:23.847Z,97861.50
2022-09-24T02:30:59.022Z,97859.13
2022-09-24T02:33:46.319Z,97853.13
2022-09-24T02:36:14.618Z,97851.47
2022-09-24T02:38:43.390Z,97860.16
2022-09-24T02:41:12.407Z,97858.69
2022-09-24T02:43:41.141Z,97852.16
2022-09-24T02:46:11.092Z,97840.88
2022-09-24T02:48:39.390Z,97837.59
2022-09-24T02:51:08.275Z,97842.94
2022-09-24T02:53:36.593Z,97848.31
2022-09-24T02:56:05.550Z,97849.97
2022-09-24T02:58:33.779Z,97848.31
2022-09-24T03:01:02.105Z,97847.50
2022-09-24T03:03:31.791Z,97854.44
2022-09-24T03:06:00.092Z,97845.94
2022-09-24T03:08:28.486Z,97842.50
2022-09-24T03:11:00.745Z,97845.22
2022-09-24T03:13:29.012Z,97852.22
2022-09-24T03:15:57.400Z,97837.66
2022-09-24T03:18:25.888Z,97841.16
2022-09-24T03:21:00.565Z,97837.75
2022-09-24T03:23:29.326Z,97833.41
2022-09-24T03:25:58.962Z,97834.34
2022-09-24T03:28:27.701Z,97823.25
2022-09-24T03:31:01.499Z,97824.09
2022-09-24T03:33:32.514Z,97816.25
2022-09-24T03:36:05.177Z,97819.72
2022-09-24T03:38:33.977Z,97824.28
2022-09-24T03:41:03.033Z,97820.16
2022-09-24T03:43:31.491Z,97814.16
2022-09-24T03:46:00.355Z,97816.81
2022-09-24T03:48:30.114Z,97822.09
2022-09-24T03:50:58.330Z,97821.44
2022-09-24T03:53:28.016Z,97822.38
2022-09-24T03:55:58.660Z,97813.53
2022-09-24T03:58:27.529Z,97813.69
2022-09-24T04:00:57.921Z,97810.34
2022-09-24T04:03:26.805Z,97810.34
2022-09-24T04:05:55.215Z,97822.38
2022-09-24T04:08:24.590Z,97820.69
2022-09-24T04:10:55.305Z,97815.94
2022-09-24T04:13:23.927Z,97825.34
2022-09-24T04:15:52.343Z,97815.75
2022-09-24T04:18:20.596Z,97812.41
2022-09-24T04:20:49.015Z,97814.25
2022-09-24T04:23:17.236Z,97816.13
2022-09-24T04:25:45.574Z,97798.66
2022-09-24T04:28:15.276Z,97800.50
2022-09-24T04:30:43.508Z,97808.25
2022-09-24T04:33:12.391Z,97818.84
2022-09-24T04:35:41.016Z,97813.56
2022-09-24T04:38:09.282Z,97813.94
2022-09-24T04:40:38.108Z,97799.25
2022-09-24T04:43:07.006Z,97802.78
2022-09-24T04:45:39.787Z,97799.47
2022-09-24T04:48:08.281Z,97795.84
2022-09-24T04:50:44.792Z,97787.16
2022-09-24T04:53:14.803Z,97787.81
2022-09-24T04:55:43.491Z,97791.28
2022-09-24T04:58:12.026Z,97790.28
2022-09-24T05:00:43.147Z,97792.75
2022-09-24T05:03:11.582Z,97786.94
2022-09-24T05:05:39.842Z,97789.53
2022-09-24T05:08:08.238Z,97782.63
2022-09-24T05:10:36.453Z,97787.06
2022-09-24T05:13:04.855Z,97795.44
2022-09-24T05:15:33.488Z,97802.69
2022-09-24T05:18:03.188Z,97795.13
2022-09-24T05:20:31.986Z,97805.53
2022-09-24T05:23:00.241Z,97809.88
2022-09-24T05:25:28.575Z,97806.41
2022-09-24T05:27:56.211Z,97803.06
2022-09-24T05:30:25.909Z,97805.53
2022-09-24T05:32:54.280Z,97806.59
2022-09-24T05:35:25.436Z,97809.19
2022-09-24T05:37:54.121Z,97812.69
2022-09-24T05:40:40.967Z,97813.59
2022-09-24T05:43:09.635Z,97815.47
2022-09-24T05:45:38.012Z,97816.59
2022-09-24T05:48:06.747Z,97820.84
2022-09-24T05:50:36.418Z,97819.19
2022-09-24T05:53:05.423Z,97818.06
2022-09-24T05:55:34.435Z,97828.41
2022-09-24T05:58:07.585Z,97831.69
2022-09-24T06:00:36.919Z,97831.69
2022-09-24T06:03:08.154Z,97830.78
2022-09-24T06:05:38.287Z,97827.28
2022-09-24T06:08:08.601Z,97826.53
2022-09-24T06:10:37.734Z,97829.31
2022-09-24T06:13:06.256Z,97831.19
2022-09-24T06:15:35.847Z,97833.47
2022-09-24T06:18:04.089Z,97828.22
2022-09-24T06:20:42.437Z,97823.75
2022-09-24T06:23:10.690Z,97829.84
2022-09-24T06:25:38.894Z,97822.81
2022-09-24T06:28:07.297Z,97822.09
2022-09-24T06:30:39.501Z,97832.84
2022-09-24T06:33:11.310Z,97835.44
2022-09-24T06:35:43.220Z,97846.91
2022-09-24T06:38:14.182Z,97853.56
2022-09-24T06:40:43.619Z,97857.25
2022-09-24T06:43:14.284Z,97854.97
2022-09-24T06:45:43.708Z,97854.97
2022-09-24T06:48:13.684Z,97853.78
2022-09-24T06:50:45.640Z,97854.78
2022-09-24T06:53:14.309Z,97851.06
2022-09-24T06:55:43.128Z,97848.69
2022-09-24T06:58:13.933Z,97850.97
2022-09-24T07:00:43.241Z,97856.25
2022-09-24T07:03:16.831Z,97862.69
2022-09-24T07:05:46.618Z,97856.06
2022-09-24T07:08:14.909Z,97862.50
2022-09-24T07:10:45.148Z,97850.47
2022-09-24T07:13:14.679Z,97851.59
2022-09-24T07:15:44.221Z,97864.16
2022-09-24T07:18:13.725Z,97865.09
2022-09-24T07:20:42.157Z,97869.22
2022-09-24T07:23:13.399Z,97862.31
2022-09-24T07:25:41.720Z,97867.66
2022-09-24T07:28:13.368Z,97867.47
2022-09-24T07:30:41.880Z,97878.44
2022-09-24T07:33:10.555Z,97880.31
2022-09-24T07:35:40.044Z,97882.78
2022-09-24T07:38:12.487Z,97884.28
2022-09-24T07:40:42.379Z,97889.25
2022-09-24T07:43:13.545Z,97885.72
2022-09-24T07:45:42.419Z,97893.59
2022-09-24T07:48:12.786Z,97888.03
2022-09-24T07:50:43.266Z,97896.72
2022-09-24T07:53:15.165Z,97896.44
2022-09-24T07:55:43.664Z,97904.81
2022-09-24T07:58:14.752Z,97900.28
2022-09-24T08:00:43.447Z,97902.97
2022-09-24T08:03:12.035Z,97904.31
2022-09-24T08:05:45.429Z,97906.53
2022-09-24T08:08:16.139Z,97894.31
2022-09-24T08:10:45.004Z,97901.22
2022-09-24T08:13:13.643Z,97898.63
2022-09-24T08:15:42.569Z,97897.00
2022-09-24T08:18:11.442Z,97896.69
2022-09-24T08:20:42.840Z,97895.56
2022-09-24T08:23:12.093Z,97903.94
2022-09-24T08:25:41.794Z,97900.16
2022-09-24T08:28:12.063Z,97903.88
2022-09-24T08:30:41.175Z,97907.59
2022-09-24T08:33:10.263Z,97904.63
2022-09-24T08:35:40.168Z,97915.50
2022-09-24T08:38:09.441Z,97913.00
2022-09-24T08:40:46.578Z,97907.63
2022-09-24T08:43:38.822Z,97909.09
2022-09-24T08:46:33.345Z,97912.72
2022-09-24T08:49:04.526Z,97905.63
2022-09-24T08:51:45.377Z,97903.78
2022-09-24T08:54:16.366Z,97912.81
2022-09-24T08:56:48.111Z,97914.88
2022-09-24T08:59:27.500Z,97906.97
2022-09-24T09:02:15.027Z,97911.16
2022-09-24T09:04:59.753Z,97910.72
2022-09-24T09:07:35.575Z,97900.94
2022-09-24T09:10:07.126Z,97907.38
2022-09-24T09:12:40.291Z,97908.81
2022-09-24T09:15:13.475Z,97905.69
2022-09-24T09:17:48.150Z,97907.31
2022-09-24T09:20:22.352Z,97905.97
2022-09-24T09:22:54.733Z,97905.53
2022-09-24T09:25:25.810Z,97897.19
2022-09-24T09:28:02.953Z,97905.75
2022-09-24T09:30:43.434Z,97910.66
2022-09-24T09:33:25.602Z,97901.97
2022-09-24T09:36:02.933Z,97909.19
2022-09-24T09:38:38.719Z,97906.28
2022-09-24T09:41:18.484Z,97912.06
2022-09-24T09:43:48.278Z,97907.44
2022-09-24T09:46:24.083Z,97898.38
2022-09-24T09:48:57.919Z,97904.50
2022-09-24T09:51:27.883Z,97900.97
2022-09-24T09:53:57.463Z,97901.34
2022-09-24T09:56:29.183Z,97897.22
2022-09-24T09:59:08.636Z,97896.28
2022-09-24T10:01:41.622Z,97891.06
2022-09-24T10:04:37.365Z,97887.13
2022-09-24T10:07:08.923Z,97883.25
2022-09-24T10:09:38.601Z,97882.50
2022-09-24T10:12:16.982Z,97885.59
2022-09-24T10:14:59.346Z,97882.16
2022-09-24T10:17:35.042Z,97888.91
2022-09-24T10:20:09.372Z,97889.88
2022-09-24T10:22:39.581Z,97891.38
2022-09-24T10:25:19.204Z,97899.78
2022-09-24T10:27:48.942Z,97901.91
2022-09-24T10:30:33.508Z,97903.91
2022-09-24T10:33:03.771Z,97897.66
2022-09-24T10:35:35.812Z,97899.16
2022-09-24T10:38:17.893Z,97891.47
2022-09-24T10:40:47.790Z,97890.06
2022-09-24T10:43:21.572Z,97891.47
2022-09-24T10:46:21.793Z,97893.34
2022-09-24T10:49:00.445Z,97895.72
2022-09-24T10:51:40.270Z,97892.69
2022-09-24T10:54:40.728Z,97893.03
2022-09-24T10:57:25.264Z,97903.31
2022-09-24T11:00:05.009Z,97896.69
2022-09-24T11:03:11.742Z,97887.72
2022-09-24T11:05:46.690Z,97893.72
2022-09-24T11:08:29.170Z,97889.00
2022-09-24T11:11:11.977Z,97894.69
2022-09-24T11:13:51.563Z,97890.09
2022-09-24T11:16:53.562Z,97886.31
2022-09-24T11:19:52.504Z,97891.53
2022-09-24T11:22:32.546Z,97896.59
2022-09-24T11:25:18.887Z,97889.63
2022-09-24T11:27:58.094Z,97892.47
2022-09-24T11:30:34.380Z,97888.34
2022-09-24T11:33:23.216Z,97879.97
2022-09-24T11:36:16.187Z,97883.13
2022-09-24T11:39:09.724Z,97881.09
2022-09-24T11:41:50.735Z,97878.19
2022-09-24T11:45:02.368Z,97874.50
2022-09-24T11:47:49.761Z,97873.06
2022-09-24T11:50:34.057Z,97860.78
2022-09-24T11:53:10.340Z,97857.81
2022-09-24T11:55:46.505Z,97867.84
2022-09-24T11:58:19.263Z,97869.41
2022-09-24T12:00:54.410Z,97859.69
2022-09-24T12:03:26.972Z,97865.13
2022-09-24T12:06:01.927Z,97863.38
2022-09-24T12:08:38.345Z,97862.41
2022-09-24T12:11:15.234Z,97863.38
2022-09-24T12:13:52.200Z,97865.97
2022-09-24T12:16:24.533Z,97857.22
2022-09-24T12:18:58.294Z,97852.84
2022-09-24T12:21:32.037Z,97851.50
2022-09-24T12:24:05.947Z,97851.28
2022-09-24T12:26:39.242Z,97844.06
2022-09-24T12:29:48.680Z,97843.09
2022-09-24T12:32:41.514Z,97844.78
2022-09-24T12:35:21.261Z,97846.66
2022-09-24T12:37:56.126Z,97852.81
2022-09-24T12:41:05.982Z,97852.69
2022-09-24T12:43:43.466Z,97852.00
2022-09-24T12:46:19.389Z,97847.63
2022-09-24T12:48:50.055Z,97852.00
2022-09-24T12:51:22.562Z,97846.47
2022-09-24T12:54:01.223Z,97841.16
2022-09-24T12:56:32.188Z,97846.09
2022-09-24T12:59:00.655Z,97849.53
2022-09-24T13:01:32.109Z,97840.78
2022-09-24T13:04:25.314Z,97833.09
2022-09-24T13:06:54.517Z,97841.03
2022-09-24T13:09:34.915Z,97830.97
2022-09-24T13:12:20.895Z,97833.53
2022-09-24T13:14:57.486Z,97831.38
2022-09-24T13:17:26.141Z,97824.41
2022-09-24T13:19:59.833Z,97833.28
2022-09-24T13:22:31.518Z,97825.97
2022-09-24T13:25:24.593Z,97834.72
2022-09-24T13:28:03.171Z,97829.03
2022-09-24T13:30:39.961Z,97832.22
2022-09-24T13:33:23.945Z,97820.75
2022-09-24T13:36:07.396Z,97819.34
2022-09-24T13:38:38.903Z,97822.63
2022-09-24T13:41:26.331Z,97819.06
2022-09-24T13:44:01.604Z,97818.63
2022-09-24T13:46:31.524Z,97824.53
2022-09-24T13:49:06.273Z,97824.97
2022-09-24T13:51:39.554Z,97829.34
2022-09-24T13:54:15.962Z,97824.16
2022-09-24T13:57:00.565Z,97819.88
2022-09-24T13:59:31.288Z,97817.41
2022-09-24T14:01:59.617Z,97818.38
2022-09-24T14:04:28.695Z,97824.97
2022-09-24T14:06:59.073Z,97819.53
2022-09-24T14:09:31.972Z,97808.84
2022-09-24T14:12:03.103Z,97807.91
2022-09-24T14:14:36.552Z,97803.41
2022-09-24T14:17:09.329Z,97814.53
2022-09-24T14:19:37.702Z,97810.81
2022-09-24T14:22:12.510Z,97799.34
2022-09-24T14:24:45.196Z,97794.13
2022-09-24T14:27:17.854Z,97798.00
2022-09-24T14:29:51.177Z,97799.09
2022-09-24T14:32:24.546Z,97797.44
2022-09-24T14:34:56.057Z,97797.44
2022-09-24T14:37:28.224Z,97799.91
2022-09-24T14:40:04.123Z,97804.31
2022-09-24T14:42:39.328Z,97802.66
2022-09-24T14:45:11.233Z,97803.34
2022-09-24T14:47:39.738Z,97802.53
2022-09-24T14:50:28.052Z,97795.78
2022-09-24T14:52:57.842Z,97796.34
2022-09-24T14:55:40.303Z,97791.38
2022-09-24T14:58:25.441Z,97794.84
2022-09-24T15:00:58.217Z,97799.09
2022-09-24T15:03:37.389Z,97799.78
2022-09-24T15:06:19.911Z,97798.84
2022-09-24T15:08:57.932Z,97796.94
2022-09-24T15:11:28.821Z,97801.88
2022-09-24T15:14:03.664Z,97796.69
2022-09-24T15:16:36.145Z,97801.06
2022-09-24T15:19:20.529Z,97797.75
2022-09-24T15:21:50.110Z,97792.44
2022-09-24T15:24:19.701Z,97789.84
2022-09-24T15:26:51.230Z,97794.06
2022-09-24T15:29:23.904Z,97787.09
2022-09-24T15:31:55.029Z,97779.13
2022-09-24T15:34:23.592Z,97780.81
2022-09-24T15:36:56.443Z,97773.69
2022-09-24T15:39:27.531Z,97779.13
2022-09-24T15:41:55.922Z,97769.44
2022-09-24T15:44:32.957Z,97778.78
2022-09-24T15:47:03.461Z,97771.53
2022-09-24T15:49:31.897Z,97777.69
2022-09-24T15:52:03.734Z,97789.63
2022-09-24T15:54:32.011Z,97775.78
2022-09-24T15:57:00.727Z,97782.78
2022-09-24T15:59:29.452Z,97774.38
2022-09-24T16:02:03.642Z,97780.28
2022-09-24T16:04:31.995Z,97780.56
2022-09-24T16:07:00.448Z,97781.97
2022-09-24T16:09:29.221Z,97780.28
2022-09-24T16:11:57.690Z,97774.81
2022-09-24T16:14:26.000Z,97778.38
2022-09-24T16:16:55.699Z,97785.25
2022-09-24T16:19:25.392Z,97778.63
2022-09-24T16:21:53.680Z,97778.78
2022-09-24T16:24:22.168Z,97783.28
2022-09-24T16:26:50.460Z,97781.88
2022-09-24T16:29:18.976Z,97785.69
2022-09-24T16:31:49.469Z,97789.25
2022-09-24T16:34:17.900Z,97789.38
2022-09-24T16:36:48.456Z,97785.38
2022-09-24T16:39:16.821Z,97780.44
2022-09-24T16:41:45.064Z,97783.13
2022-09-24T16:44:14.964Z,97780.69
2022-09-24T16:46:43.354Z,97775.56
2022-09-24T16:49:12.056Z,97782.81
2022-09-24T16:51:40.577Z,97778.69
2022-09-24T16:54:11.941Z,97786.50
2022-09-24T16:56:40.192Z,97779.53
2022-09-24T16:59:10.103Z,97777.88
2022-09-24T17:01:39.891Z,97779.38
2022-09-24T17:04:08.196Z,97775.53
2022-09-24T17:06:36.865Z,97774.13
2022-09-24T17:12:23.292Z,97786.63
2022-09-24T17:14:51.562Z,97774.13
2022-09-24T17:17:20.133Z,97779.72
2022-09-24T17:19:48.405Z,97775.34
2022-09-24T17:22:16.671Z,97779.81
2022-09-24T17:24:44.896Z,97774.63
2022-09-24T17:27:13.185Z,97784.22
2022-09-24T17:29:43.194Z,97781.84
2022-09-24T17:32:11.517Z,97788.25
2022-09-24T17:34:44.941Z,97791.22
2022-09-24T17:37:14.048Z,97793.13
2022-09-24T17:39:42.370Z,97788.66
2022-09-24T17:42:10.804Z,97793.84
2022-09-24T17:44:39.053Z,97801.78
2022-09-24T17:47:08.905Z,97810.66
2022-09-24T17:49:37.650Z,97815.41
2022-09-24T17:52:06.232Z,97816.69
2022-09-24T17:54:34.572Z,97812.69
2022-09-24T17:57:02.892Z,97812.59
2022-09-24T17:59:31.200Z,97808.56
2022-09-24T18:01:59.515Z,97819.06
2022-09-24T18:04:31.264Z,97826.88
2022-09-24T18:06:59.659Z,97836.59
2022-09-24T18:09:28.177Z,97828.06
2022-09-24T18:11:58.046Z,97823.94
2022-09-24T18:14:26.384Z,97829.63
2022-09-24T18:16:54.860Z,97823.69
2022-09-24T18:19:23.188Z,97821.09
2022-09-24T18:21:52.784Z,97814.00
2022-09-24T18:24:21.247Z,97826.28
2022-09-24T18:26:51.831Z,97819.44
2022-09-24T18:29:21.535Z,97829.16
2022-09-24T18:31:51.265Z,97831.75
2022-09-24T18:34:19.805Z,97826.66
2022-09-24T18:36:48.124Z,97825.84
2022-09-24T18:39:24.724Z,97838.81
2022-09-24T18:41:53.842Z,97832.56
2022-09-24T18:44:22.181Z,97839.41
2022-09-24T18:46:50.811Z,97840.25
2022-09-24T18:49:19.547Z,97841.06
2022-09-24T18:51:48.884Z,97849.81
2022-09-24T18:54:19.223Z,97852.28
2022-09-24T18:56:48.012Z,97847.34
2022-09-24T18:59:19.069Z,97844.03
2022-09-24T19:01:50.594Z,97842.16
2022-09-24T19:04:19.569Z,97831.75
2022-09-24T19:06:49.823Z,97834.44
2022-09-24T19:09:21.180Z,97842.16
2022-09-24T19:11:50.258Z,97836.13
2022-09-24T19:14:18.987Z,97841.31
2022-09-24T19:16:48.087Z,97834.69
2022-09-24T19:19:16.948Z,97840.97
2022-09-24T19:21:45.255Z,97836.00
2022-09-24T19:24:13.586Z,97835.88
2022-09-24T19:26:43.472Z,97830.19
2022-09-24T19:29:12.219Z,97833.75
2022-09-24T19:31:45.450Z,97832.09
2022-09-24T19:34:15.200Z,97829.84
2022-09-24T19:36:44.824Z,97830.09
2022-09-24T19:39:18.157Z,97836.22
2022-09-24T19:41:48.929Z,97836.94
2022-09-24T19:44:17.676Z,97839.75
2022-09-24T19:46:46.788Z,97839.06
2022-09-24T19:49:15.233Z,97843.31
2022-09-24T19:51:43.681Z,97844.97
2022-09-24T19:54:12.331Z,97842.81
2022-09-24T19:56:41.428Z,97837.28
2022-09-24T19:59:13.235Z,97837.34
2022-09-24T20:01:42.358Z,97848.69
2022-09-24T20:04:10.859Z,97833.09
2022-09-24T20:06:39.798Z,97833.94
2022-09-24T20:09:08.542Z,97818.34
2022-09-24T20:11:37.223Z,97820.84
2022-09-24T20:14:08.779Z,97822.53
2022-09-24T20:16:40.289Z,97818.97
2022-09-24T20:19:09.225Z,97818.97
2022-09-24T20:21:38.506Z,97821.47
2022-09-24T20:24:09.437Z,97823.22
2022-09-24T20:26:55.248Z,97824.16
2022-09-24T20:29:24.431Z,97836.44
2022-09-24T20:31:56.097Z,97833.09
2022-09-24T20:34:33.360Z,97839.13
2022-09-24T20:37:02.304Z,97833.22
2022-09-24T20:39:32.773Z,97835.00
2022-09-24T20:42:03.899Z,97837.69
2022-09-24T20:44:32.701Z,97837.69
2022-09-24T20:47:02.569Z,97837.84
2022-09-24T20:49:30.916Z,97831.91
2022-09-24T20:51:59.207Z,97834.63
2022-09-24T20:54:29.203Z,97837.31
2022-09-24T20:56:57.968Z,97841.81
2022-09-24T20:59:27.048Z,97835.81
2022-09-24T21:01:55.805Z,97839.22
2022-09-24T21:04:26.610Z,97837.59
2022-09-24T21:06:55.452Z,97834.25
2022-09-24T21:09:23.882Z,97831.78
2022-09-24T21:11:53.087Z,97829.28
2022-09-24T21:14:22.377Z,97827.66
2022-09-24T21:16:50.739Z,97826.81
2022-09-24T21:19:19.222Z,97841.56
2022-09-24T21:21:48.923Z,97840.75
2022-09-24T21:24:17.480Z,97845.81
2022-09-24T21:26:46.001Z,97838.03
2022-09-24T21:29:17.320Z,97845.81
2022-09-24T21:31:47.778Z,97844.41
2022-09-24T21:34:20.553Z,97843.69
2022-09-24T21:36:52.041Z,97842.97
2022-09-24T21:39:23.416Z,97841.41
2022-09-24T21:41:54.930Z,97841.53
2022-09-24T21:44:23.304Z,97835.63
2022-09-24T21:46:52.433Z,97840.81
2022-09-24T21:49:22.734Z,97840.81
2022-09-24T21:51:55.616Z,97846.88
2022-09-24T21:54:24.302Z,97855.56
2022-09-24T21:56:54.216Z,97853.09
2022-09-24T21:59:40.334Z,97842.50
2022-09-24T22:02:10.022Z,97848.59
2022-09-24T22:04:39.097Z,97851.19
2022-09-24T22:07:10.349Z,97849.56
2022-09-24T22:09:38.719Z,97849.56
2022-09-24T22:12:07.203Z,97847.91
2022-09-24T22:14:37.147Z,97840.22
2022-09-24T22:17:07.386Z,97838.47
2022-09-24T22:19:37.641Z,97844.50
2022-09-24T22:22:05.884Z,97844.59
2022-09-24T22:24:36.473Z,97849.56
2022-09-24T22:27:07.610Z,97847.19
2022-09-24T22:29:35.962Z,97849.78
2022-09-24T22:32:05.127Z,97850.72
2022-09-24T22:34:51.376Z,97862.06
2022-09-24T22:37:19.858Z,97849.06
2022-09-24T22:39:49.820Z,97852.50
2022-09-24T22:42:18.272Z,97858.50
2022-09-24T22:44:46.920Z,97857.81
2022-09-24T22:47:15.397Z,97855.31
2022-09-24T22:49:43.832Z,97856.13
2022-09-24T22:52:12.336Z,97853.53
2022-09-24T22:54:40.916Z,97855.22
2022-09-24T22:57:10.730Z,97853.53
2022-09-24T22:59:39.267Z,97838.22
2022-09-24T23:02:12.396Z,97840.81
2022-09-24T23:04:41.941Z,97828.88
2022-09-24T23:07:10.550Z,97835.94
2022-09-24T23:09:39.001Z,97839.25
2022-09-24T23:12:07.496Z,97841.13
2022-09-24T23:14:37.456Z,97829.91
2022-09-24T23:17:05.939Z,97835.34
2022-09-24T23:22:28.362Z,97837.09
2022-09-24T23:24:56.824Z,97832.84
2022-09-24T23:27:25.641Z,97832.25
2022-09-24T23:29:54.831Z,97836.75
2022-09-24T23:32:23.173Z,97839.34
2022-09-24T23:34:51.601Z,97843.94
2022-09-24T23:37:19.865Z,97836.13
2022-09-24T23:39:49.454Z,97836.22
2022-09-24T23:42:17.727Z,97835.31
2022-09-24T23:44:48.461Z,97839.56
2022-09-24T23:47:17.120Z,97840.59
2022-09-24T23:49:45.328Z,97839.03
2022-09-24T23:52:13.617Z,97845.19
2022-09-24T23:54:41.961Z,97840.00
2022-09-24T23:57:11.711Z,97840.94
2022-09-24T23:59:39.957Z,97840.22
